sensor_id;sensor_type;location;lat;lon;timestamp;pressure;altitude;pressure_sealevel;temperature;humidity
7182;BME280;3632;42.724;23.298;2023-03-22T00:01:18;95048.97;;;11.19;100.00
7182;BME280;3632;42.724;23.298;2023-03-22T00:03:47;95073.66;;;11.18;100.00
7182;BME280;3632;42.724;23.298;2023-03-22T00:06:15;95048.66;;;11.12;100.00
7182;BME280;3632;42.724;23.298;2023-03-22T00:08:42;94976.75;;;10.78;100.00
7182;BME280;3632;42.724;23.298;2023-03-22T00:11:10;95041.59;;;11.16;100.00
7182;BME280;3632;42.724;23.298;2023-03-22T00:13:37;94977.09;;;10.64;100.00
7182;BME280;3632;42.724;23.298;2023-03-22T00:16:08;95077.56;;;11.22;100.00
7182;BME280;3632;42.724;23.298;2023-03-22T00:18:35;95052.22;;;11.30;100.00
7182;BME280;3632;42.724;23.298;2023-03-22T00:21:04;95068.34;;;11.31;100.00
7182;BME280;3632;42.724;23.298;2023-03-22T00:23:31;94943.06;;;10.75;100.00
7182;BME280;3632;42.724;23.298;2023-03-22T00:25:58;94923.88;;;10.71;100.00
7182;BME280;3632;42.724;23.298;2023-03-22T00:28:25;94960.72;;;10.97;100.00
7182;BME280;3632;42.724;23.298;2023-03-22T00:30:54;95041.28;;;11.49;100.00
7182;BME280;3632;42.724;23.298;2023-03-22T00:33:22;95043.16;;;11.57;100.00
7182;BME280;3632;42.724;23.298;2023-03-22T00:35:50;94960.72;;;10.97;100.00
7182;BME280;3632;42.724;23.298;2023-03-22T00:38:19;95033.78;;;11.67;100.00
7182;BME280;3632;42.724;23.298;2023-03-22T00:40:46;95064.28;;;11.68;100.00
7182;BME280;3632;42.724;23.298;2023-03-22T00:43:13;95146.78;;;11.69;100.00
7182;BME280;3632;42.724;23.298;2023-03-22T00:45:41;95031.78;;;11.70;100.00
7182;BME280;3632;42.724;23.298;2023-03-22T00:48:09;95040.25;;;11.71;100.00
7182;BME280;3632;42.724;23.298;2023-03-22T00:50:37;95030.97;;;11.70;100.00
7182;BME280;3632;42.724;23.298;2023-03-22T00:53:04;94990.47;;;10.57;100.00
7182;BME280;3632;42.724;23.298;2023-03-22T00:55:33;95016.59;;;11.69;100.00
7182;BME280;3632;42.724;23.298;2023-03-22T00:58:00;95029.34;;;11.69;100.00
7182;BME280;3632;42.724;23.298;2023-03-22T01:00:27;95021.03;;;11.67;100.00
7182;BME280;3632;42.724;23.298;2023-03-22T01:02:54;95008.09;;;11.49;100.00
7182;BME280;3632;42.724;23.298;2023-03-22T01:05:29;95026.22;;;11.56;100.00
7182;BME280;3632;42.724;23.298;2023-03-22T01:07:59;95031.88;;;11.50;100.00
7182;BME280;3632;42.724;23.298;2023-03-22T01:10:27;94937.75;;;10.97;100.00
7182;BME280;3632;42.724;23.298;2023-03-22T01:12:56;95042.75;;;11.52;100.00
7182;BME280;3632;42.724;23.298;2023-03-22T01:15:23;94555.44;;;8.52;100.00
7182;BME280;3632;42.724;23.298;2023-03-22T01:17:50;94999.28;;;11.13;100.00
7182;BME280;3632;42.724;23.298;2023-03-22T01:20:18;95014.53;;;11.43;100.00
7182;BME280;3632;42.724;23.298;2023-03-22T01:22:45;94853.91;;;10.44;100.00
7182;BME280;3632;42.724;23.298;2023-03-22T01:25:14;94708.72;;;9.34;100.00
7182;BME280;3632;42.724;23.298;2023-03-22T01:27:41;95037.31;;;10.86;100.00
7182;BME280;3632;42.724;23.298;2023-03-22T01:30:10;95013.50;;;11.06;100.00
7182;BME280;3632;42.724;23.298;2023-03-22T01:32:37;95006.53;;;11.18;100.00
7182;BME280;3632;42.724;23.298;2023-03-22T01:35:05;95000.50;;;11.19;100.00
7182;BME280;3632;42.724;23.298;2023-03-22T01:37:32;94993.38;;;11.13;100.00
7182;BME280;3632;42.724;23.298;2023-03-22T01:39:59;95037.72;;;10.91;100.00
7182;BME280;3632;42.724;23.298;2023-03-22T01:42:26;94742.53;;;8.84;100.00
7182;BME280;3632;42.724;23.298;2023-03-22T01:45:25;94998.84;;;10.98;100.00
7182;BME280;3632;42.724;23.298;2023-03-22T01:47:58;94951.09;;;10.70;100.00
7182;BME280;3632;42.724;23.298;2023-03-22T01:50:27;94942.63;;;10.70;100.00
7182;BME280;3632;42.724;23.298;2023-03-22T01:52:56;95004.66;;;11.10;100.00
7182;BME280;3632;42.724;23.298;2023-03-22T01:55:25;94964.47;;;10.93;100.00
7182;BME280;3632;42.724;23.298;2023-03-22T01:57:53;94597.31;;;7.62;100.00
7182;BME280;3632;42.724;23.298;2023-03-22T02:00:21;94898.22;;;10.63;100.00
7182;BME280;3632;42.724;23.298;2023-03-22T02:02:50;94863.69;;;10.39;100.00
7182;BME280;3632;42.724;23.298;2023-03-22T02:05:18;95010.00;;;11.07;100.00
7182;BME280;3632;42.724;23.298;2023-03-22T02:07:47;94892.88;;;10.15;100.00
7182;BME280;3632;42.724;23.298;2023-03-22T02:10:16;94934.16;;;10.08;100.00
7182;BME280;3632;42.724;23.298;2023-03-22T02:15:37;94986.81;;;10.49;100.00
7182;BME280;3632;42.724;23.298;2023-03-22T02:18:16;94830.91;;;9.12;100.00
7182;BME280;3632;42.724;23.298;2023-03-22T02:23:54;95004.06;;;10.97;100.00
7182;BME280;3632;42.724;23.298;2023-03-22T02:27:03;94878.22;;;10.18;100.00
7182;BME280;3632;42.724;23.298;2023-03-22T02:29:40;95017.88;;;10.94;100.00
7182;BME280;3632;42.724;23.298;2023-03-22T02:32:41;95073.41;;;10.91;100.00
7182;BME280;3632;42.724;23.298;2023-03-22T02:35:30;94975.22;;;10.66;100.00
7182;BME280;3632;42.724;23.298;2023-03-22T02:41:09;95013.16;;;10.90;100.00
7182;BME280;3632;42.724;23.298;2023-03-22T02:43:41;94936.66;;;10.50;100.00
7182;BME280;3632;42.724;23.298;2023-03-22T02:46:17;95019.63;;;10.94;100.00
7182;BME280;3632;42.724;23.298;2023-03-22T02:48:53;94937.00;;;10.36;100.00
7182;BME280;3632;42.724;23.298;2023-03-22T02:51:28;95024.19;;;10.90;100.00
7182;BME280;3632;42.724;23.298;2023-03-22T02:54:01;94595.38;;;7.87;100.00
7182;BME280;3632;42.724;23.298;2023-03-22T02:56:33;95011.81;;;10.95;100.00
7182;BME280;3632;42.724;23.298;2023-03-22T02:59:04;95013.06;;;11.01;100.00
7182;BME280;3632;42.724;23.298;2023-03-22T03:01:37;95022.88;;;11.06;100.00
7182;BME280;3632;42.724;23.298;2023-03-22T03:04:08;95048.34;;;10.96;100.00
7182;BME280;3632;42.724;23.298;2023-03-22T03:06:39;95026.41;;;11.14;100.00
7182;BME280;3632;42.724;23.298;2023-03-22T03:09:11;94986.56;;;10.83;100.00
7182;BME280;3632;42.724;23.298;2023-03-22T03:11:44;95021.84;;;11.18;100.00
7182;BME280;3632;42.724;23.298;2023-03-22T03:14:19;95021.84;;;11.18;100.00
7182;BME280;3632;42.724;23.298;2023-03-22T03:16:49;95023.72;;;11.16;100.00
7182;BME280;3632;42.724;23.298;2023-03-22T03:19:23;94907.53;;;10.43;100.00
7182;BME280;3632;42.724;23.298;2023-03-22T03:21:57;94431.25;;;6.82;100.00
7182;BME280;3632;42.724;23.298;2023-03-22T03:24:31;94667.75;;;8.77;100.00
7182;BME280;3632;42.724;23.298;2023-03-22T03:27:04;94968.38;;;10.67;100.00
7182;BME280;3632;42.724;23.298;2023-03-22T03:29:39;95004.81;;;10.88;100.00
7182;BME280;3632;42.724;23.298;2023-03-22T03:32:10;94960.84;;;10.56;100.00
7182;BME280;3632;42.724;23.298;2023-03-22T03:34:43;95032.00;;;10.98;100.00
7182;BME280;3632;42.724;23.298;2023-03-22T03:37:16;94448.13;;;7.35;100.00
7182;BME280;3632;42.724;23.298;2023-03-22T03:39:50;95035.75;;;11.04;100.00
7182;BME280;3632;42.724;23.298;2023-03-22T03:42:20;95034.41;;;11.00;100.00
7182;BME280;3632;42.724;23.298;2023-03-22T03:44:49;95033.72;;;10.98;100.00
7182;BME280;3632;42.724;23.298;2023-03-22T03:47:17;94738.88;;;8.77;100.00
7182;BME280;3632;42.724;23.298;2023-03-22T03:49:44;95086.13;;;10.81;100.00
7182;BME280;3632;42.724;23.298;2023-03-22T03:52:11;94801.66;;;9.38;100.00
7182;BME280;3632;42.724;23.298;2023-03-22T03:54:38;94940.59;;;10.33;100.00
7182;BME280;3632;42.724;23.298;2023-03-22T03:57:06;94414.50;;;7.02;100.00
7182;BME280;3632;42.724;23.298;2023-03-22T03:59:34;95069.94;;;10.92;100.00
7182;BME280;3632;42.724;23.298;2023-03-22T04:02:01;95047.53;;;10.95;100.00
7182;BME280;3632;42.724;23.298;2023-03-22T04:04:28;94965.50;;;10.09;100.00
7182;BME280;3632;42.724;23.298;2023-03-22T04:06:57;94919.50;;;10.22;100.00
7182;BME280;3632;42.724;23.298;2023-03-22T04:09:26;95047.41;;;10.97;100.00
7182;BME280;3632;42.724;23.298;2023-03-22T04:11:54;95071.03;;;10.99;100.00
7182;BME280;3632;42.724;23.298;2023-03-22T04:14:22;95115.63;;;10.84;100.00
7182;BME280;3632;42.724;23.298;2023-03-22T04:16:50;95053.91;;;10.80;100.00
7182;BME280;3632;42.724;23.298;2023-03-22T04:19:18;95045.88;;;10.85;100.00
7182;BME280;3632;42.724;23.298;2023-03-22T04:21:45;95062.94;;;10.43;100.00
7182;BME280;3632;42.724;23.298;2023-03-22T04:24:12;95058.19;;;10.80;100.00
7182;BME280;3632;42.724;23.298;2023-03-22T04:26:40;95185.66;;;10.80;100.00
7182;BME280;3632;42.724;23.298;2023-03-22T04:29:07;94925.53;;;10.00;100.00
7182;BME280;3632;42.724;23.298;2023-03-22T04:31:34;95052.41;;;10.78;100.00
7182;BME280;3632;42.724;23.298;2023-03-22T04:34:02;95229.44;;;10.85;100.00
7182;BME280;3632;42.724;23.298;2023-03-22T04:36:31;94915.16;;;9.39;100.00
7182;BME280;3632;42.724;23.298;2023-03-22T04:39:02;95055.38;;;10.83;100.00
7182;BME280;3632;42.724;23.298;2023-03-22T04:41:30;94566.25;;;7.38;100.00
7182;BME280;3632;42.724;23.298;2023-03-22T04:43:57;95054.66;;;10.71;100.00
7182;BME280;3632;42.724;23.298;2023-03-22T04:46:27;94595.69;;;7.61;100.00
7182;BME280;3632;42.724;23.298;2023-03-22T04:48:57;95056.31;;;10.51;100.00
7182;BME280;3632;42.724;23.298;2023-03-22T04:51:26;94996.66;;;9.81;100.00
7182;BME280;3632;42.724;23.298;2023-03-22T04:53:53;95067.91;;;10.44;100.00
7182;BME280;3632;42.724;23.298;2023-03-22T04:56:20;94958.06;;;9.76;100.00
7182;BME280;3632;42.724;23.298;2023-03-22T04:58:47;94761.47;;;7.71;100.00
7182;BME280;3632;42.724;23.298;2023-03-22T05:01:15;95076.25;;;10.46;100.00
7182;BME280;3632;42.724;23.298;2023-03-22T05:03:43;95095.19;;;10.53;100.00
7182;BME280;3632;42.724;23.298;2023-03-22T05:06:11;95078.72;;;10.58;100.00
7182;BME280;3632;42.724;23.298;2023-03-22T05:08:40;95058.59;;;10.54;100.00
7182;BME280;3632;42.724;23.298;2023-03-22T05:11:09;95078.97;;;10.75;100.00
7182;BME280;3632;42.724;23.298;2023-03-22T05:13:36;94855.19;;;9.37;100.00
7182;BME280;3632;42.724;23.298;2023-03-22T05:16:04;94717.53;;;8.47;100.00
7182;BME280;3632;42.724;23.298;2023-03-22T05:18:31;95053.84;;;9.97;100.00
7182;BME280;3632;42.724;23.298;2023-03-22T05:20:59;95086.97;;;10.71;100.00
7182;BME280;3632;42.724;23.298;2023-03-22T05:23:28;95090.78;;;10.76;100.00
7182;BME280;3632;42.724;23.298;2023-03-22T05:25:56;95096.06;;;10.84;100.00
7182;BME280;3632;42.724;23.298;2023-03-22T05:28:26;95086.34;;;10.78;100.00
7182;BME280;3632;42.724;23.298;2023-03-22T05:30:53;94568.53;;;7.41;100.00
7182;BME280;3632;42.724;23.298;2023-03-22T05:33:19;94867.22;;;9.35;100.00
7182;BME280;3632;42.724;23.298;2023-03-22T05:35:47;95093.78;;;10.91;100.00
7182;BME280;3632;42.724;23.298;2023-03-22T05:38:14;94555.44;;;7.14;100.00
7182;BME280;3632;42.724;23.298;2023-03-22T05:40:41;95097.22;;;11.01;100.00
7182;BME280;3632;42.724;23.298;2023-03-22T05:43:10;95098.31;;;11.08;100.00
7182;BME280;3632;42.724;23.298;2023-03-22T05:45:37;95105.59;;;11.13;100.00
7182;BME280;3632;42.724;23.298;2023-03-22T05:48:04;94862.97;;;9.03;100.00
7182;BME280;3632;42.724;23.298;2023-03-22T05:50:31;95133.72;;;11.02;100.00
7182;BME280;3632;42.724;23.298;2023-03-22T05:52:58;95010.34;;;10.63;100.00
7182;BME280;3632;42.724;23.298;2023-03-22T05:55:25;95106.72;;;11.20;100.00
7182;BME280;3632;42.724;23.298;2023-03-22T05:57:54;94956.50;;;10.05;100.00
7182;BME280;3632;42.724;23.298;2023-03-22T06:00:23;95035.22;;;10.49;100.00
7182;BME280;3632;42.724;23.298;2023-03-22T06:02:50;95118.69;;;10.78;100.00
7182;BME280;3632;42.724;23.298;2023-03-22T06:05:21;94760.34;;;8.41;100.00
7182;BME280;3632;42.724;23.298;2023-03-22T06:07:48;95187.94;;;10.30;100.00
7182;BME280;3632;42.724;23.298;2023-03-22T06:10:15;95119.63;;;10.77;100.00
7182;BME280;3632;42.724;23.298;2023-03-22T06:12:43;95041.53;;;10.14;100.00
7182;BME280;3632;42.724;23.298;2023-03-22T06:15:10;94877.84;;;9.08;100.00
7182;BME280;3632;42.724;23.298;2023-03-22T06:17:39;95139.81;;;11.10;100.00
7182;BME280;3632;42.724;23.298;2023-03-22T06:20:06;95125.50;;;11.19;100.00
7182;BME280;3632;42.724;23.298;2023-03-22T06:22:36;95132.50;;;11.26;100.00
7182;BME280;3632;42.724;23.298;2023-03-22T06:25:03;94521.69;;;7.56;100.00
7182;BME280;3632;42.724;23.298;2023-03-22T06:27:31;95147.91;;;11.45;100.00
7182;BME280;3632;42.724;23.298;2023-03-22T06:29:57;95145.53;;;11.54;100.00
7182;BME280;3632;42.724;23.298;2023-03-22T06:32:25;95137.59;;;11.57;100.00
7182;BME280;3632;42.724;23.298;2023-03-22T06:34:53;95138.03;;;11.62;100.00
7182;BME280;3632;42.724;23.298;2023-03-22T06:37:21;95092.13;;;11.01;99.60
7182;BME280;3632;42.724;23.298;2023-03-22T06:39:48;95136.09;;;11.75;98.37
7182;BME280;3632;42.724;23.298;2023-03-22T06:42:15;94910.97;;;9.49;97.79
7182;BME280;3632;42.724;23.298;2023-03-22T06:44:42;95132.72;;;11.84;97.25
7182;BME280;3632;42.724;23.298;2023-03-22T06:47:09;95138.13;;;11.90;97.71
7182;BME280;3632;42.724;23.298;2023-03-22T06:49:36;94691.34;;;8.88;96.98
7182;BME280;3632;42.724;23.298;2023-03-22T06:52:04;95152.44;;;11.72;96.40
7182;BME280;3632;42.724;23.298;2023-03-22T06:54:32;95152.50;;;11.82;96.13
7182;BME280;3632;42.724;23.298;2023-03-22T06:56:58;95121.59;;;11.55;95.87
7182;BME280;3632;42.724;23.298;2023-03-22T06:59:26;95152.41;;;11.32;97.57
7182;BME280;3632;42.724;23.298;2023-03-22T07:01:53;95144.28;;;11.18;100.00
7182;BME280;3632;42.724;23.298;2023-03-22T07:04:20;95160.28;;;10.99;100.00
7182;BME280;3632;42.724;23.298;2023-03-22T07:06:49;95158.97;;;10.84;100.00
7182;BME280;3632;42.724;23.298;2023-03-22T07:09:17;95166.44;;;10.96;100.00
7182;BME280;3632;42.724;23.298;2023-03-22T07:11:44;95165.41;;;11.29;100.00
7182;BME280;3632;42.724;23.298;2023-03-22T07:14:11;95162.03;;;11.19;100.00
7182;BME280;3632;42.724;23.298;2023-03-22T07:16:38;94736.03;;;8.16;100.00
7182;BME280;3632;42.724;23.298;2023-03-22T07:19:05;95173.19;;;10.66;100.00
7182;BME280;3632;42.724;23.298;2023-03-22T07:21:32;95176.28;;;10.48;100.00
7182;BME280;3632;42.724;23.298;2023-03-22T07:23:59;95173.31;;;10.43;100.00
7182;BME280;3632;42.724;23.298;2023-03-22T07:26:27;94906.94;;;9.15;100.00
7182;BME280;3632;42.724;23.298;2023-03-22T07:28:55;95089.75;;;9.94;100.00
7182;BME280;3632;42.724;23.298;2023-03-22T07:31:22;95170.28;;;11.32;100.00
7182;BME280;3632;42.724;23.298;2023-03-22T07:33:49;94734.38;;;8.48;100.00
7182;BME280;3632;42.724;23.298;2023-03-22T07:36:17;95182.78;;;11.35;100.00
7182;BME280;3632;42.724;23.298;2023-03-22T07:38:48;95187.22;;;10.92;100.00
7182;BME280;3632;42.724;23.298;2023-03-22T07:41:15;95175.09;;;10.64;100.00
7182;BME280;3632;42.724;23.298;2023-03-22T07:43:44;95206.94;;;11.31;100.00
7182;BME280;3632;42.724;23.298;2023-03-22T07:46:11;95219.50;;;11.44;100.00
7182;BME280;3632;42.724;23.298;2023-03-22T07:48:37;94773.53;;;8.66;100.00
7182;BME280;3632;42.724;23.298;2023-03-22T07:51:05;95069.50;;;10.87;99.48
7182;BME280;3632;42.724;23.298;2023-03-22T07:53:32;95186.53;;;11.71;97.43
7182;BME280;3632;42.724;23.298;2023-03-22T07:55:59;95250.97;;;11.75;96.62
7182;BME280;3632;42.724;23.298;2023-03-22T07:58:25;95193.47;;;11.80;97.07
7182;BME280;3632;42.724;23.298;2023-03-22T08:00:53;95199.13;;;11.84;96.01
7182;BME280;3632;42.724;23.298;2023-03-22T08:03:20;95192.69;;;11.89;95.62
7182;BME280;3632;42.724;23.298;2023-03-22T08:05:47;95130.94;;;10.42;94.76
7182;BME280;3632;42.724;23.298;2023-03-22T08:08:15;95198.88;;;11.97;95.56
7182;BME280;3632;42.724;23.298;2023-03-22T08:10:47;95191.66;;;12.02;95.75
7182;BME280;3632;42.724;23.298;2023-03-22T08:13:14;94996.72;;;10.73;94.91
7182;BME280;3632;42.724;23.298;2023-03-22T08:15:41;95142.22;;;12.12;100.00
7182;BME280;3632;42.724;23.298;2023-03-22T08:18:09;95198.72;;;12.48;93.70
7182;BME280;3632;42.724;23.298;2023-03-22T08:20:35;95201.94;;;12.40;92.02
7182;BME280;3632;42.724;23.298;2023-03-22T08:23:03;95207.59;;;12.34;91.43
7182;BME280;3632;42.724;23.298;2023-03-22T08:25:32;95205.44;;;12.29;92.82
7182;BME280;3632;42.724;23.298;2023-03-22T08:27:59;95137.06;;;11.83;99.23
7182;BME280;3632;42.724;23.298;2023-03-22T08:30:26;95212.41;;;12.27;92.58
7182;BME280;3632;42.724;23.298;2023-03-22T08:32:53;95211.88;;;12.24;92.51
7182;BME280;3632;42.724;23.298;2023-03-22T08:35:21;94888.38;;;9.56;92.04
7182;BME280;3632;42.724;23.298;2023-03-22T08:37:52;95216.44;;;12.20;92.08
7182;BME280;3632;42.724;23.298;2023-03-22T08:40:19;95135.81;;;11.17;92.80
7182;BME280;3632;42.724;23.298;2023-03-22T08:42:47;95105.31;;;11.46;93.30
7182;BME280;3632;42.724;23.298;2023-03-22T08:45:14;95218.31;;;12.18;94.03
7182;BME280;3632;42.724;23.298;2023-03-22T08:47:41;95252.09;;;12.22;95.31
7182;BME280;3632;42.724;23.298;2023-03-22T08:50:08;95223.69;;;12.15;94.27
7182;BME280;3632;42.724;23.298;2023-03-22T08:52:37;95225.22;;;12.37;98.03
7182;BME280;3632;42.724;23.298;2023-03-22T08:55:05;95055.72;;;11.29;93.78
7182;BME280;3632;42.724;23.298;2023-03-22T08:57:32;95217.69;;;12.26;93.81
7182;BME280;3632;42.724;23.298;2023-03-22T08:59:59;95249.78;;;12.09;95.27
7182;BME280;3632;42.724;23.298;2023-03-22T09:02:27;95221.97;;;12.25;96.29
7182;BME280;3632;42.724;23.298;2023-03-22T09:04:53;95224.88;;;12.11;95.75
7182;BME280;3632;42.724;23.298;2023-03-22T09:07:20;95228.59;;;11.88;94.17
7182;BME280;3632;42.724;23.298;2023-03-22T09:09:49;95230.56;;;11.75;96.27
7182;BME280;3632;42.724;23.298;2023-03-22T09:12:16;95227.53;;;11.70;97.17
7182;BME280;3632;42.724;23.298;2023-03-22T09:14:43;95233.09;;;11.75;97.43
7182;BME280;3632;42.724;23.298;2023-03-22T09:17:11;95282.16;;;11.78;97.10
7182;BME280;3632;42.724;23.298;2023-03-22T09:19:38;95228.34;;;11.70;97.04
7182;BME280;3632;42.724;23.298;2023-03-22T09:22:04;95232.41;;;11.73;97.70
7182;BME280;3632;42.724;23.298;2023-03-22T09:24:31;94994.84;;;10.24;96.90
7182;BME280;3632;42.724;23.298;2023-03-22T09:26:59;94974.75;;;10.10;97.03
7182;BME280;3632;42.724;23.298;2023-03-22T09:29:26;94622.69;;;7.94;96.51
7182;BME280;3632;42.724;23.298;2023-03-22T09:31:53;95004.28;;;10.33;97.08
7182;BME280;3632;42.724;23.298;2023-03-22T09:34:20;95180.66;;;11.40;96.76
7182;BME280;3632;42.724;23.298;2023-03-22T09:36:47;95233.47;;;11.70;97.97
7182;BME280;3632;42.724;23.298;2023-03-22T09:39:14;95233.09;;;11.75;97.14
7182;BME280;3632;42.724;23.298;2023-03-22T09:41:44;95231.66;;;11.82;96.41
7182;BME280;3632;42.724;23.298;2023-03-22T09:44:17;95232.06;;;11.87;96.00
7182;BME280;3632;42.724;23.298;2023-03-22T09:46:49;95235.47;;;11.97;94.73
7182;BME280;3632;42.724;23.298;2023-03-22T09:49:20;95235.69;;;12.24;100.00
7182;BME280;3632;42.724;23.298;2023-03-22T09:51:51;95256.00;;;12.26;92.41
7182;BME280;3632;42.724;23.298;2023-03-22T09:54:26;95238.25;;;12.24;92.14
7182;BME280;3632;42.724;23.298;2023-03-22T09:56:58;95158.38;;;11.73;91.87
7182;BME280;3632;42.724;23.298;2023-03-22T09:59:37;95226.63;;;12.11;92.63
7182;BME280;3632;42.724;23.298;2023-03-22T10:05:03;94731.88;;;8.90;92.29
7182;BME280;3632;42.724;23.298;2023-03-22T10:07:46;95237.81;;;12.19;92.44
7182;BME280;3632;42.724;23.298;2023-03-22T10:10:20;95238.25;;;12.24;91.77
7182;BME280;3632;42.724;23.298;2023-03-22T10:12:53;95166.72;;;11.75;89.69
7182;BME280;3632;42.724;23.298;2023-03-22T10:15:28;95236.50;;;12.25;90.68
7182;BME280;3632;42.724;23.298;2023-03-22T10:17:58;95242.34;;;12.06;92.29
7182;BME280;3632;42.724;23.298;2023-03-22T10:20:35;95219.19;;;11.68;95.00
7182;BME280;3632;42.724;23.298;2023-03-22T10:23:06;94969.56;;;10.32;93.32
7182;BME280;3632;42.724;23.298;2023-03-22T10:25:37;95175.25;;;11.64;93.27
7182;BME280;3632;42.724;23.298;2023-03-22T10:28:14;95143.06;;;11.42;94.71
7182;BME280;3632;42.724;23.298;2023-03-22T10:30:44;94969.41;;;10.54;91.52
7182;BME280;3632;42.724;23.298;2023-03-22T10:33:20;95247.78;;;12.22;92.60
7182;BME280;3632;42.724;23.298;2023-03-22T10:35:51;95247.00;;;12.31;89.48
7182;BME280;3632;42.724;23.298;2023-03-22T10:38:21;95242.03;;;12.40;88.18
7182;BME280;3632;42.724;23.298;2023-03-22T10:40:50;95242.06;;;12.49;88.10
7182;BME280;3632;42.724;23.298;2023-03-22T10:43:21;95243.69;;;12.60;87.89
7182;BME280;3632;42.724;23.298;2023-03-22T10:45:52;95187.09;;;12.05;87.25
7182;BME280;3632;42.724;23.298;2023-03-22T10:48:25;95236.94;;;12.49;87.83
7182;BME280;3632;42.724;23.298;2023-03-22T10:50:54;95236.44;;;12.55;87.62
7182;BME280;3632;42.724;23.298;2023-03-22T10:53:27;94850.94;;;10.09;86.68
7182;BME280;3632;42.724;23.298;2023-03-22T10:55:59;95230.50;;;12.64;87.26
7182;BME280;3632;42.724;23.298;2023-03-22T10:58:28;95197.66;;;12.41;87.28
7182;BME280;3632;42.724;23.298;2023-03-22T11:00:58;95109.22;;;11.90;88.26
7182;BME280;3632;42.724;23.298;2023-03-22T11:03:30;95238.16;;;12.74;88.20
7182;BME280;3632;42.724;23.298;2023-03-22T11:06:00;95233.22;;;12.72;88.62
7182;BME280;3632;42.724;23.298;2023-03-22T11:08:28;95260.66;;;12.70;87.89
7182;BME280;3632;42.724;23.298;2023-03-22T11:10:55;95238.44;;;12.71;87.17
7182;BME280;3632;42.724;23.298;2023-03-22T11:13:24;95143.69;;;12.15;86.76
7182;BME280;3632;42.724;23.298;2023-03-22T11:15:54;94941.53;;;10.63;87.34
7182;BME280;3632;42.724;23.298;2023-03-22T11:18:28;95230.50;;;12.64;87.38
7182;BME280;3632;42.724;23.298;2023-03-22T11:20:58;95232.38;;;12.62;87.85
7182;BME280;3632;42.724;23.298;2023-03-22T11:23:26;94944.22;;;10.31;88.47
7182;BME280;3632;42.724;23.298;2023-03-22T11:26:03;95229.41;;;12.57;88.18
7182;BME280;3632;42.724;23.298;2023-03-22T11:28:33;95310.22;;;12.29;88.92
7182;BME280;3632;42.724;23.298;2023-03-22T11:31:05;94868.09;;;10.37;89.15
7182;BME280;3632;42.724;23.298;2023-03-22T11:33:34;95223.63;;;12.55;89.31
7182;BME280;3632;42.724;23.298;2023-03-22T11:36:04;95261.25;;;12.24;89.66
7182;BME280;3632;42.724;23.298;2023-03-22T11:38:35;95159.13;;;12.04;90.73
7182;BME280;3632;42.724;23.298;2023-03-22T11:41:06;95124.56;;;11.90;88.99
7182;BME280;3632;42.724;23.298;2023-03-22T11:43:35;95222.97;;;12.63;88.29
7182;BME280;3632;42.724;23.298;2023-03-22T11:46:04;94846.38;;;9.82;87.63
7182;BME280;3632;42.724;23.298;2023-03-22T11:48:34;95143.00;;;12.22;87.95
7182;BME280;3632;42.724;23.298;2023-03-22T11:51:08;95172.50;;;12.46;85.39
7182;BME280;3632;42.724;23.298;2023-03-22T11:53:38;95234.28;;;12.79;85.24
7182;BME280;3632;42.724;23.298;2023-03-22T11:56:07;95217.03;;;12.81;84.53
7182;BME280;3632;42.724;23.298;2023-03-22T11:58:53;95226.03;;;12.57;85.82
7182;BME280;3632;42.724;23.298;2023-03-22T12:01:31;95245.84;;;12.55;86.27
7182;BME280;3632;42.724;23.298;2023-03-22T12:04:06;95225.22;;;12.56;86.87
7182;BME280;3632;42.724;23.298;2023-03-22T12:06:37;94808.69;;;9.97;87.43
7182;BME280;3632;42.724;23.298;2023-03-22T12:09:09;95221.25;;;12.73;87.38
7182;BME280;3632;42.724;23.298;2023-03-22T12:11:39;95220.81;;;12.87;87.84
7182;BME280;3632;42.724;23.298;2023-03-22T12:14:15;95220.44;;;12.72;87.58
7182;BME280;3632;42.724;23.298;2023-03-22T12:16:46;95096.47;;;12.00;88.98
7182;BME280;3632;42.724;23.298;2023-03-22T12:19:24;94765.78;;;9.92;88.73
7182;BME280;3632;42.724;23.298;2023-03-22T12:21:54;94877.97;;;10.71;87.55
7182;BME280;3632;42.724;23.298;2023-03-22T12:24:26;95213.28;;;12.95;86.85
7182;BME280;3632;42.724;23.298;2023-03-22T12:26:57;94977.66;;;10.68;85.83
7182;BME280;3632;42.724;23.298;2023-03-22T12:29:25;95208.44;;;12.73;86.98
7182;BME280;3632;42.724;23.298;2023-03-22T12:31:58;94871.19;;;10.41;87.76
7182;BME280;3632;42.724;23.298;2023-03-22T12:34:34;95201.69;;;12.53;88.28
7182;BME280;3632;42.724;23.298;2023-03-22T12:37:05;95240.31;;;12.69;86.83
7182;BME280;3632;42.724;23.298;2023-03-22T12:39:38;94985.97;;;10.70;86.76
7182;BME280;3632;42.724;23.298;2023-03-22T12:42:20;95249.59;;;12.70;87.50
7182;BME280;3632;42.724;23.298;2023-03-22T12:44:48;94973.41;;;10.87;88.95
7182;BME280;3632;42.724;23.298;2023-03-22T12:47:20;95194.28;;;12.78;88.47
7182;BME280;3632;42.724;23.298;2023-03-22T12:49:55;94979.31;;;11.37;87.18
7182;BME280;3632;42.724;23.298;2023-03-22T12:52:26;95205.47;;;12.87;86.52
7182;BME280;3632;42.724;23.298;2023-03-22T12:54:57;95126.31;;;11.59;86.28
7182;BME280;3632;42.724;23.298;2023-03-22T12:57:26;95153.91;;;12.44;86.92
7182;BME280;3632;42.724;23.298;2023-03-22T12:59:55;95211.91;;;12.81;86.03
7182;BME280;3632;42.724;23.298;2023-03-22T13:02:26;95211.41;;;12.59;86.51
7182;BME280;3632;42.724;23.298;2023-03-22T13:04:57;95202.66;;;12.52;87.57
7182;BME280;3632;42.724;23.298;2023-03-22T13:07:34;95209.78;;;12.58;87.10
7182;BME280;3632;42.724;23.298;2023-03-22T13:13:40;95163.06;;;12.27;86.74
7182;BME280;3632;42.724;23.298;2023-03-22T13:16:20;95203.19;;;12.84;84.39
7182;BME280;3632;42.724;23.298;2023-03-22T13:19:00;95063.66;;;12.14;83.62
7182;BME280;3632;42.724;23.298;2023-03-22T13:21:32;95164.25;;;13.00;84.07
7182;BME280;3632;42.724;23.298;2023-03-22T13:24:19;95201.66;;;13.30;83.40
7182;BME280;3632;42.724;23.298;2023-03-22T13:26:48;94814.91;;;10.53;81.78
7182;BME280;3632;42.724;23.298;2023-03-22T13:29:18;95194.22;;;13.46;82.82
7182;BME280;3632;42.724;23.298;2023-03-22T13:31:55;94578.25;;;9.93;81.54
7182;BME280;3632;42.724;23.298;2023-03-22T13:34:35;94958.72;;;12.54;80.59
7182;BME280;3632;42.724;23.298;2023-03-22T13:37:09;95170.28;;;14.19;79.07